HKMO/MBA METAR and TAF weather

Enter ICAO airport designator
Station Type Date Time Source
HKMO METAR 2020/02/16 19:00 UTC NOAA

HKMO 161900Z 04004KT 9999 FEW023 27/24 Q1012 NOSIG


Station Type Date Time Source
HKMO Decoded METAR 2020/02/16 19:00 UTC NOAA

Mombasa, Kenya (HKMO) 04-02S 039-37E 55M
Feb 16, 2020 - 02:00 PM EST / 2020.02.16 1900 UTC
Wind: from the NE (040 degrees) at 5 MPH (4 KT):0
Visibility: greater than 7 mile(s):0
Sky conditions: mostly clear
Temperature: 80 F (27 C)
Dew Point: 75 F (24 C)
Relative Humidity: 83%
Pressure (altimeter): 29.88 in. Hg (1012 hPa)
ob: HKMO 161900Z 04004KT 9999 FEW023 27/24 Q1012 NOSIG
cycle: 19

Station Type Date Time Source
HKMO TAF 2020/02/16 18:15 UTC NOAA

TAF TAF HKMO 161700Z 1618/1724 04005KT 9999 FEW023
BECMG 1700/1706 35005KT SCT021
BECMG 1709/1712 08010KT FEW026CB
BECMG 1718/1721 05005KT FEW022

Example: see airport list